This is the latest recevied weather packets stored in our database for station/object CW79215. If no packets are shown the sender has not sent any weather packets the latest 1 day(s).
| Time | Temp. | Humidity | Pressure | Rain* | Wind** | Luminosity | Snow |
|---|---|---|---|---|---|---|---|
| 1777743432 | 20.56° C | 47% | 1019.9 hPa | - | - | - | - |
| 1777742532 | 21.11° C | 45% | 1019.9 hPa | - | - | - | - |
| 1777741632 | 21.67° C | 45% | 1019.9 hPa | - | - | - | - |
| 1777740732 | 21.67° C | 42% | 1020 hPa | - | - | - | - |
| 1777739832 | 22.22° C | 38% | 1020.2 hPa | - | - | - | - |
| 1777738932 | 23.33° C | 35% | 1020.4 hPa | - | - | - | - |
| 1777738032 | 23.89° C | 35% | 1020.6 hPa | - | - | - | - |
| 1777737132 | 23.89° C | 33% | 1020.6 hPa | - | - | - | - |
| 1777736232 | 23.89° C | 34% | 1020.6 hPa | - | - | - | - |
| 1777735332 | 25° C | 32% | 1020.8 hPa | - | - | - | - |
| 1777734432 | 23.89° C | 35% | 1021 hPa | - | - | - | - |
| 1777733532 | 24.44° C | 34% | 1021.1 hPa | - | - | - | - |
| 1777732631 | 26.11° C | 31% | 1021.4 hPa | - | - | - | - |
| 1777731731 | 25.56° C | 33% | 1021.6 hPa | - | - | - | - |
| 1777730831 | 25° C | 34% | 1021.8 hPa | - | - | - | - |
| 1777729931 | 25° C | 33% | 1022.2 hPa | - | - | - | - |
| 1777729031 | 25° C | 33% | 1022.3 hPa | - | - | - | - |
| 1777728131 | 25° C | 34% | 1022.5 hPa | - | - | - | - |
| 1777727231 | 25.56° C | 35% | 1022.6 hPa | - | - | - | - |
| 1777726331 | 25° C | 36% | 1022.8 hPa | - | - | - | - |
| 1777725431 | 25° C | 35% | 1023 hPa | - | - | - | - |
| 1777724531 | 24.44° C | 35% | 1023.2 hPa | - | - | - | - |
| 1777723631 | 25° C | 38% | 1023.3 hPa | - | - | - | - |
| 1777722730 | 24.44° C | 38% | 1023.5 hPa | - | - | - | - |
| 1777721830 | 23.89° C | 36% | 1023.7 hPa | - | - | - | - |
* Rain since midnight (hover to see other rain measurements)
** Current wind speed in m/s (hover to see current wind gust speed)